sensor_id;sensor_type;location;lat;lon;timestamp;temperature;humidity
26342;DHT22;14054;50.108;8.640;2023-12-07T00:00:38;3.60;99.90
26342;DHT22;14054;50.108;8.640;2023-12-07T00:03:03;3.60;99.90
26342;DHT22;14054;50.108;8.640;2023-12-07T00:05:32;3.60;99.90
26342;DHT22;14054;50.108;8.640;2023-12-07T00:07:58;3.50;99.90
26342;DHT22;14054;50.108;8.640;2023-12-07T00:10:23;3.50;99.90
26342;DHT22;14054;50.108;8.640;2023-12-07T00:12:49;3.50;99.90
26342;DHT22;14054;50.108;8.640;2023-12-07T00:15:14;3.50;99.90
26342;DHT22;14054;50.108;8.640;2023-12-07T00:17:40;3.50;99.90
26342;DHT22;14054;50.108;8.640;2023-12-07T00:20:06;3.50;99.90
26342;DHT22;14054;50.108;8.640;2023-12-07T00:22:31;3.50;99.90
26342;DHT22;14054;50.108;8.640;2023-12-07T00:24:57;3.50;99.90
26342;DHT22;14054;50.108;8.640;2023-12-07T00:27:22;3.50;99.90
26342;DHT22;14054;50.108;8.640;2023-12-07T00:29:48;3.40;99.90
26342;DHT22;14054;50.108;8.640;2023-12-07T00:32:14;3.40;99.90
26342;DHT22;14054;50.108;8.640;2023-12-07T00:34:39;3.40;99.90
26342;DHT22;14054;50.108;8.640;2023-12-07T00:37:05;3.40;99.90
26342;DHT22;14054;50.108;8.640;2023-12-07T00:39:30;3.30;99.90
26342;DHT22;14054;50.108;8.640;2023-12-07T00:41:56;3.30;99.90
26342;DHT22;14054;50.108;8.640;2023-12-07T00:44:21;3.30;99.90
26342;DHT22;14054;50.108;8.640;2023-12-07T00:46:47;3.20;99.90
26342;DHT22;14054;50.108;8.640;2023-12-07T00:49:12;3.20;99.90
26342;DHT22;14054;50.108;8.640;2023-12-07T00:51:38;3.10;99.90
26342;DHT22;14054;50.108;8.640;2023-12-07T00:54:03;3.10;99.90
26342;DHT22;14054;50.108;8.640;2023-12-07T00:56:29;3.10;99.90
26342;DHT22;14054;50.108;8.640;2023-12-07T00:58:54;3.00;99.90
26342;DHT22;14054;50.108;8.640;2023-12-07T01:01:20;3.00;99.90
26342;DHT22;14054;50.108;8.640;2023-12-07T01:03:46;2.90;99.90
26342;DHT22;14054;50.108;8.640;2023-12-07T01:06:11;2.90;99.90
26342;DHT22;14054;50.108;8.640;2023-12-07T01:08:37;2.80;99.90
26342;DHT22;14054;50.108;8.640;2023-12-07T01:11:04;2.80;99.90
26342;DHT22;14054;50.108;8.640;2023-12-07T01:13:29;2.80;99.90
26342;DHT22;14054;50.108;8.640;2023-12-07T01:15:55;2.70;99.90
26342;DHT22;14054;50.108;8.640;2023-12-07T01:18:21;2.70;99.90
26342;DHT22;14054;50.108;8.640;2023-12-07T01:20:47;2.70;99.90
26342;DHT22;14054;50.108;8.640;2023-12-07T01:23:13;2.60;99.90
26342;DHT22;14054;50.108;8.640;2023-12-07T01:25:39;2.60;99.90
26342;DHT22;14054;50.108;8.640;2023-12-07T01:28:04;2.60;99.90
26342;DHT22;14054;50.108;8.640;2023-12-07T01:30:30;2.60;99.90
26342;DHT22;14054;50.108;8.640;2023-12-07T01:32:56;2.60;99.90
26342;DHT22;14054;50.108;8.640;2023-12-07T01:35:21;2.60;99.90
26342;DHT22;14054;50.108;8.640;2023-12-07T01:37:47;2.50;99.90
26342;DHT22;14054;50.108;8.640;2023-12-07T01:40:12;2.50;99.90
26342;DHT22;14054;50.108;8.640;2023-12-07T01:42:49;2.50;99.90
26342;DHT22;14054;50.108;8.640;2023-12-07T01:45:15;2.40;99.90
26342;DHT22;14054;50.108;8.640;2023-12-07T01:47:41;2.30;99.90
26342;DHT22;14054;50.108;8.640;2023-12-07T01:50:08;2.30;99.90
26342;DHT22;14054;50.108;8.640;2023-12-07T01:52:38;2.30;99.90
26342;DHT22;14054;50.108;8.640;2023-12-07T01:55:07;2.30;99.90
26342;DHT22;14054;50.108;8.640;2023-12-07T01:57:34;2.30;99.90
26342;DHT22;14054;50.108;8.640;2023-12-07T02:00:01;2.30;99.90
26342;DHT22;14054;50.108;8.640;2023-12-07T02:02:26;2.30;99.90
26342;DHT22;14054;50.108;8.640;2023-12-07T02:04:52;2.20;99.90
26342;DHT22;14054;50.108;8.640;2023-12-07T02:07:17;2.20;99.90
26342;DHT22;14054;50.108;8.640;2023-12-07T02:09:43;2.20;99.90
26342;DHT22;14054;50.108;8.640;2023-12-07T02:12:09;2.20;99.90
26342;DHT22;14054;50.108;8.640;2023-12-07T02:14:34;2.10;99.90
26342;DHT22;14054;50.108;8.640;2023-12-07T02:19:47;2.10;99.90
26342;DHT22;14054;50.108;8.640;2023-12-07T02:22:18;2.10;99.90
26342;DHT22;14054;50.108;8.640;2023-12-07T02:24:58;2.00;99.90
26342;DHT22;14054;50.108;8.640;2023-12-07T02:27:38;2.00;99.90
26342;DHT22;14054;50.108;8.640;2023-12-07T02:30:06;1.90;99.90
26342;DHT22;14054;50.108;8.640;2023-12-07T02:32:32;1.80;99.90
26342;DHT22;14054;50.108;8.640;2023-12-07T02:34:57;1.80;99.90
26342;DHT22;14054;50.108;8.640;2023-12-07T02:37:27;1.80;99.90
26342;DHT22;14054;50.108;8.640;2023-12-07T02:39:55;1.80;99.90
26342;DHT22;14054;50.108;8.640;2023-12-07T02:42:21;1.70;99.90
26342;DHT22;14054;50.108;8.640;2023-12-07T02:44:51;1.70;99.90
26342;DHT22;14054;50.108;8.640;2023-12-07T02:47:17;1.60;99.90
26342;DHT22;14054;50.108;8.640;2023-12-07T02:49:42;1.60;99.90
26342;DHT22;14054;50.108;8.640;2023-12-07T02:52:08;1.50;99.90
26342;DHT22;14054;50.108;8.640;2023-12-07T02:54:34;1.60;99.90
26342;DHT22;14054;50.108;8.640;2023-12-07T02:56:59;1.50;99.90
26342;DHT22;14054;50.108;8.640;2023-12-07T02:59:25;1.40;99.90
26342;DHT22;14054;50.108;8.640;2023-12-07T03:01:50;1.40;99.90
26342;DHT22;14054;50.108;8.640;2023-12-07T03:04:16;1.40;99.90
26342;DHT22;14054;50.108;8.640;2023-12-07T03:06:41;1.40;99.90
26342;DHT22;14054;50.108;8.640;2023-12-07T03:09:07;1.40;99.90
26342;DHT22;14054;50.108;8.640;2023-12-07T03:11:33;1.40;99.90
26342;DHT22;14054;50.108;8.640;2023-12-07T03:13:59;1.40;99.90
26342;DHT22;14054;50.108;8.640;2023-12-07T03:16:24;1.40;99.90
26342;DHT22;14054;50.108;8.640;2023-12-07T03:18:50;1.40;99.90
26342;DHT22;14054;50.108;8.640;2023-12-07T03:21:15;1.30;99.90
26342;DHT22;14054;50.108;8.640;2023-12-07T03:23:41;1.30;99.90
26342;DHT22;14054;50.108;8.640;2023-12-07T03:26:06;1.30;99.90
26342;DHT22;14054;50.108;8.640;2023-12-07T03:28:32;1.40;99.90
26342;DHT22;14054;50.108;8.640;2023-12-07T03:30:57;1.30;99.90
26342;DHT22;14054;50.108;8.640;2023-12-07T03:33:23;1.30;99.90
26342;DHT22;14054;50.108;8.640;2023-12-07T03:35:48;1.30;99.90
26342;DHT22;14054;50.108;8.640;2023-12-07T03:38:14;1.40;99.90
26342;DHT22;14054;50.108;8.640;2023-12-07T03:40:40;1.30;99.90
26342;DHT22;14054;50.108;8.640;2023-12-07T03:43:05;1.30;99.90
26342;DHT22;14054;50.108;8.640;2023-12-07T03:45:31;1.30;99.90
26342;DHT22;14054;50.108;8.640;2023-12-07T03:47:56;1.30;99.90
26342;DHT22;14054;50.108;8.640;2023-12-07T03:50:22;1.20;99.90
26342;DHT22;14054;50.108;8.640;2023-12-07T03:52:47;1.20;99.90
26342;DHT22;14054;50.108;8.640;2023-12-07T03:55:13;1.20;99.90
26342;DHT22;14054;50.108;8.640;2023-12-07T03:57:39;1.20;99.90
26342;DHT22;14054;50.108;8.640;2023-12-07T04:00:05;1.20;99.90
26342;DHT22;14054;50.108;8.640;2023-12-07T04:02:34;1.20;99.90
26342;DHT22;14054;50.108;8.640;2023-12-07T04:05:00;1.20;99.90
26342;DHT22;14054;50.108;8.640;2023-12-07T04:07:28;1.20;99.90
26342;DHT22;14054;50.108;8.640;2023-12-07T04:09:54;1.20;99.90
26342;DHT22;14054;50.108;8.640;2023-12-07T04:12:20;1.20;99.90
26342;DHT22;14054;50.108;8.640;2023-12-07T04:14:46;1.20;99.90
26342;DHT22;14054;50.108;8.640;2023-12-07T04:17:11;1.20;99.90
26342;DHT22;14054;50.108;8.640;2023-12-07T04:19:37;1.20;99.90
26342;DHT22;14054;50.108;8.640;2023-12-07T04:22:02;1.20;99.90
26342;DHT22;14054;50.108;8.640;2023-12-07T04:24:28;1.30;99.90
26342;DHT22;14054;50.108;8.640;2023-12-07T04:26:54;1.30;99.90
26342;DHT22;14054;50.108;8.640;2023-12-07T04:29:20;1.20;99.90
26342;DHT22;14054;50.108;8.640;2023-12-07T04:31:45;1.20;99.90
26342;DHT22;14054;50.108;8.640;2023-12-07T04:34:11;1.20;99.90
26342;DHT22;14054;50.108;8.640;2023-12-07T04:36:36;1.30;99.90
26342;DHT22;14054;50.108;8.640;2023-12-07T04:39:02;1.20;99.90
26342;DHT22;14054;50.108;8.640;2023-12-07T04:41:28;1.20;99.90
26342;DHT22;14054;50.108;8.640;2023-12-07T04:43:54;1.20;99.90
26342;DHT22;14054;50.108;8.640;2023-12-07T04:46:20;1.20;99.90
26342;DHT22;14054;50.108;8.640;2023-12-07T04:48:45;1.20;99.90
26342;DHT22;14054;50.108;8.640;2023-12-07T04:51:11;1.20;99.90
26342;DHT22;14054;50.108;8.640;2023-12-07T04:53:36;1.30;99.90
26342;DHT22;14054;50.108;8.640;2023-12-07T04:56:02;1.30;99.90
26342;DHT22;14054;50.108;8.640;2023-12-07T04:58:28;1.30;99.90
26342;DHT22;14054;50.108;8.640;2023-12-07T05:00:53;1.30;99.90
26342;DHT22;14054;50.108;8.640;2023-12-07T05:03:19;1.30;99.90
26342;DHT22;14054;50.108;8.640;2023-12-07T05:05:44;1.30;99.90
26342;DHT22;14054;50.108;8.640;2023-12-07T05:08:10;1.30;99.90
26342;DHT22;14054;50.108;8.640;2023-12-07T05:13:02;1.30;99.90
26342;DHT22;14054;50.108;8.640;2023-12-07T05:15:28;1.30;99.90
26342;DHT22;14054;50.108;8.640;2023-12-07T05:17:53;1.40;99.90
26342;DHT22;14054;50.108;8.640;2023-12-07T05:20:19;1.40;99.90
26342;DHT22;14054;50.108;8.640;2023-12-07T05:22:48;1.30;99.90
26342;DHT22;14054;50.108;8.640;2023-12-07T05:25:13;1.30;99.90
26342;DHT22;14054;50.108;8.640;2023-12-07T05:27:39;1.30;99.90
26342;DHT22;14054;50.108;8.640;2023-12-07T05:30:05;1.30;99.90
26342;DHT22;14054;50.108;8.640;2023-12-07T05:32:31;1.30;99.90
26342;DHT22;14054;50.108;8.640;2023-12-07T05:34:56;1.20;99.90
26342;DHT22;14054;50.108;8.640;2023-12-07T05:37:22;1.20;99.90
26342;DHT22;14054;50.108;8.640;2023-12-07T05:39:47;1.20;99.90
26342;DHT22;14054;50.108;8.640;2023-12-07T05:42:13;1.20;99.90
26342;DHT22;14054;50.108;8.640;2023-12-07T05:44:38;1.20;99.90
26342;DHT22;14054;50.108;8.640;2023-12-07T05:47:04;1.20;99.90
26342;DHT22;14054;50.108;8.640;2023-12-07T05:49:29;1.20;99.90
26342;DHT22;14054;50.108;8.640;2023-12-07T05:51:55;1.20;99.90
26342;DHT22;14054;50.108;8.640;2023-12-07T05:54:20;1.20;99.90
26342;DHT22;14054;50.108;8.640;2023-12-07T05:56:47;1.10;99.90
26342;DHT22;14054;50.108;8.640;2023-12-07T05:59:13;1.20;99.90
26342;DHT22;14054;50.108;8.640;2023-12-07T06:01:39;1.10;99.90
26342;DHT22;14054;50.108;8.640;2023-12-07T06:04:08;1.10;99.90
26342;DHT22;14054;50.108;8.640;2023-12-07T06:06:34;1.10;99.90
26342;DHT22;14054;50.108;8.640;2023-12-07T06:08:59;1.10;99.90
26342;DHT22;14054;50.108;8.640;2023-12-07T06:11:25;1.00;99.90
26342;DHT22;14054;50.108;8.640;2023-12-07T06:13:50;1.00;99.90
26342;DHT22;14054;50.108;8.640;2023-12-07T06:16:16;1.00;99.90
26342;DHT22;14054;50.108;8.640;2023-12-07T06:18:43;1.00;99.90
26342;DHT22;14054;50.108;8.640;2023-12-07T06:21:08;1.00;99.90
26342;DHT22;14054;50.108;8.640;2023-12-07T06:23:34;0.90;99.90
26342;DHT22;14054;50.108;8.640;2023-12-07T06:26:01;1.00;99.90
26342;DHT22;14054;50.108;8.640;2023-12-07T06:28:27;1.00;99.90
26342;DHT22;14054;50.108;8.640;2023-12-07T06:30:53;0.90;99.90
26342;DHT22;14054;50.108;8.640;2023-12-07T06:33:18;1.00;99.90
26342;DHT22;14054;50.108;8.640;2023-12-07T06:35:44;1.00;99.90
26342;DHT22;14054;50.108;8.640;2023-12-07T06:38:11;0.90;99.90
26342;DHT22;14054;50.108;8.640;2023-12-07T06:40:37;0.90;99.90
26342;DHT22;14054;50.108;8.640;2023-12-07T06:43:02;0.80;99.90
26342;DHT22;14054;50.108;8.640;2023-12-07T06:45:28;0.80;99.90
26342;DHT22;14054;50.108;8.640;2023-12-07T06:47:54;0.80;99.90
26342;DHT22;14054;50.108;8.640;2023-12-07T06:50:19;0.80;99.90
26342;DHT22;14054;50.108;8.640;2023-12-07T06:52:45;0.70;99.90
26342;DHT22;14054;50.108;8.640;2023-12-07T06:55:10;0.80;99.90
26342;DHT22;14054;50.108;8.640;2023-12-07T06:57:36;0.70;99.90
26342;DHT22;14054;50.108;8.640;2023-12-07T07:00:02;0.80;99.90
26342;DHT22;14054;50.108;8.640;2023-12-07T07:02:31;0.70;99.90
26342;DHT22;14054;50.108;8.640;2023-12-07T07:04:56;0.70;99.90
26342;DHT22;14054;50.108;8.640;2023-12-07T07:07:22;0.70;99.90
26342;DHT22;14054;50.108;8.640;2023-12-07T07:09:48;0.70;99.90
26342;DHT22;14054;50.108;8.640;2023-12-07T07:12:13;0.70;99.90
26342;DHT22;14054;50.108;8.640;2023-12-07T07:14:39;0.70;99.90
26342;DHT22;14054;50.108;8.640;2023-12-07T07:17:05;0.80;99.90
26342;DHT22;14054;50.108;8.640;2023-12-07T07:19:31;0.80;99.90
26342;DHT22;14054;50.108;8.640;2023-12-07T07:21:56;0.80;99.90
26342;DHT22;14054;50.108;8.640;2023-12-07T07:24:22;0.80;99.90
26342;DHT22;14054;50.108;8.640;2023-12-07T07:26:47;1.00;99.90
26342;DHT22;14054;50.108;8.640;2023-12-07T07:29:13;1.00;99.90
26342;DHT22;14054;50.108;8.640;2023-12-07T07:31:38;0.90;99.90
26342;DHT22;14054;50.108;8.640;2023-12-07T07:34:05;1.00;99.90
26342;DHT22;14054;50.108;8.640;2023-12-07T07:36:31;1.00;99.90
26342;DHT22;14054;50.108;8.640;2023-12-07T07:38:56;1.10;99.90
26342;DHT22;14054;50.108;8.640;2023-12-07T07:41:22;1.10;99.90
26342;DHT22;14054;50.108;8.640;2023-12-07T07:43:48;1.10;99.90
26342;DHT22;14054;50.108;8.640;2023-12-07T07:46:14;1.20;99.90
26342;DHT22;14054;50.108;8.640;2023-12-07T07:48:40;1.20;99.90
26342;DHT22;14054;50.108;8.640;2023-12-07T07:51:05;1.30;99.90
26342;DHT22;14054;50.108;8.640;2023-12-07T07:53:31;1.40;99.90
26342;DHT22;14054;50.108;8.640;2023-12-07T07:55:56;1.50;99.90
26342;DHT22;14054;50.108;8.640;2023-12-07T07:58:22;1.50;99.90
26342;DHT22;14054;50.108;8.640;2023-12-07T08:00:47;1.60;99.90
26342;DHT22;14054;50.108;8.640;2023-12-07T08:03:13;1.80;99.90
26342;DHT22;14054;50.108;8.640;2023-12-07T08:05:39;1.60;99.90
26342;DHT22;14054;50.108;8.640;2023-12-07T08:08:04;1.50;99.90
26342;DHT22;14054;50.108;8.640;2023-12-07T08:10:30;1.50;99.90
26342;DHT22;14054;50.108;8.640;2023-12-07T08:12:55;1.60;99.90
26342;DHT22;14054;50.108;8.640;2023-12-07T08:15:21;1.50;99.90
26342;DHT22;14054;50.108;8.640;2023-12-07T08:17:47;1.50;99.90
26342;DHT22;14054;50.108;8.640;2023-12-07T08:20:12;1.50;99.90
26342;DHT22;14054;50.108;8.640;2023-12-07T08:22:40;1.50;99.90
26342;DHT22;14054;50.108;8.640;2023-12-07T08:25:10;1.70;99.90
26342;DHT22;14054;50.108;8.640;2023-12-07T08:27:39;1.70;99.90
26342;DHT22;14054;50.108;8.640;2023-12-07T08:30:06;1.90;99.90
26342;DHT22;14054;50.108;8.640;2023-12-07T08:32:31;2.10;99.90
26342;DHT22;14054;50.108;8.640;2023-12-07T08:34:57;1.90;99.90
26342;DHT22;14054;50.108;8.640;2023-12-07T08:37:23;1.80;99.90
26342;DHT22;14054;50.108;8.640;2023-12-07T08:39:48;1.80;99.90
26342;DHT22;14054;50.108;8.640;2023-12-07T08:42:14;1.80;99.90
26342;DHT22;14054;50.108;8.640;2023-12-07T08:44:40;1.80;99.90
26342;DHT22;14054;50.108;8.640;2023-12-07T08:47:06;1.80;99.90
26342;DHT22;14054;50.108;8.640;2023-12-07T08:49:31;1.80;99.90
26342;DHT22;14054;50.108;8.640;2023-12-07T08:51:58;1.80;99.90
26342;DHT22;14054;50.108;8.640;2023-12-07T08:54:24;1.80;99.90
26342;DHT22;14054;50.108;8.640;2023-12-07T08:56:49;2.10;99.90
26342;DHT22;14054;50.108;8.640;2023-12-07T08:59:15;1.90;99.90
26342;DHT22;14054;50.108;8.640;2023-12-07T09:01:40;1.90;99.90
26342;DHT22;14054;50.108;8.640;2023-12-07T09:04:06;2.00;99.90
26342;DHT22;14054;50.108;8.640;2023-12-07T09:06:31;2.30;99.90
26342;DHT22;14054;50.108;8.640;2023-12-07T09:08:57;2.40;99.90
26342;DHT22;14054;50.108;8.640;2023-12-07T09:11:23;2.40;99.90
26342;DHT22;14054;50.108;8.640;2023-12-07T09:13:48;2.50;99.90
26342;DHT22;14054;50.108;8.640;2023-12-07T09:16:14;2.50;99.90
26342;DHT22;14054;50.108;8.640;2023-12-07T09:18:41;2.50;99.90
26342;DHT22;14054;50.108;8.640;2023-12-07T09:21:07;2.60;99.90
26342;DHT22;14054;50.108;8.640;2023-12-07T09:23:33;2.90;99.90
26342;DHT22;14054;50.108;8.640;2023-12-07T09:26:00;3.10;99.90
26342;DHT22;14054;50.108;8.640;2023-12-07T09:28:25;3.40;99.90
26342;DHT22;14054;50.108;8.640;2023-12-07T09:30:51;3.70;99.90
26342;DHT22;14054;50.108;8.640;2023-12-07T09:33:17;3.90;99.90
26342;DHT22;14054;50.108;8.640;2023-12-07T09:35:42;4.10;99.90
26342;DHT22;14054;50.108;8.640;2023-12-07T09:38:08;4.10;99.90
26342;DHT22;14054;50.108;8.640;2023-12-07T09:40:34;4.00;99.90
26342;DHT22;14054;50.108;8.640;2023-12-07T09:43:00;3.90;99.90
26342;DHT22;14054;50.108;8.640;2023-12-07T09:45:26;3.80;99.90
26342;DHT22;14054;50.108;8.640;2023-12-07T09:47:53;3.70;99.90
26342;DHT22;14054;50.108;8.640;2023-12-07T09:50:20;3.70;99.90
26342;DHT22;14054;50.108;8.640;2023-12-07T09:52:52;3.70;99.90
26342;DHT22;14054;50.108;8.640;2023-12-07T09:55:19;3.90;99.90
26342;DHT22;14054;50.108;8.640;2023-12-07T09:57:45;3.80;99.90
26342;DHT22;14054;50.108;8.640;2023-12-07T10:00:12;3.60;99.90
26342;DHT22;14054;50.108;8.640;2023-12-07T10:02:40;3.60;99.90
26342;DHT22;14054;50.108;8.640;2023-12-07T10:05:08;3.60;99.90
26342;DHT22;14054;50.108;8.640;2023-12-07T10:07:40;3.50;99.90
26342;DHT22;14054;50.108;8.640;2023-12-07T10:10:06;3.40;99.90
26342;DHT22;14054;50.108;8.640;2023-12-07T10:12:35;3.30;99.90
26342;DHT22;14054;50.108;8.640;2023-12-07T10:15:13;3.30;99.90
26342;DHT22;14054;50.108;8.640;2023-12-07T10:17:51;3.40;99.90
26342;DHT22;14054;50.108;8.640;2023-12-07T10:20:21;3.50;99.90
26342;DHT22;14054;50.108;8.640;2023-12-07T10:23:09;3.40;99.90
26342;DHT22;14054;50.108;8.640;2023-12-07T10:25:43;3.40;99.90
26342;DHT22;14054;50.108;8.640;2023-12-07T10:28:10;3.40;99.90
26342;DHT22;14054;50.108;8.640;2023-12-07T10:30:40;3.40;99.90
26342;DHT22;14054;50.108;8.640;2023-12-07T10:33:06;3.40;99.90
26342;DHT22;14054;50.108;8.640;2023-12-07T10:35:41;3.30;99.90
26342;DHT22;14054;50.108;8.640;2023-12-07T10:38:07;3.30;99.90
26342;DHT22;14054;50.108;8.640;2023-12-07T10:40:33;3.20;99.90
26342;DHT22;14054;50.108;8.640;2023-12-07T10:42:59;3.20;99.90
26342;DHT22;14054;50.108;8.640;2023-12-07T10:45:29;3.50;99.90
26342;DHT22;14054;50.108;8.640;2023-12-07T10:48:02;3.80;99.90
26342;DHT22;14054;50.108;8.640;2023-12-07T10:50:31;4.00;99.90
26342;DHT22;14054;50.108;8.640;2023-12-07T10:52:59;4.10;99.90
26342;DHT22;14054;50.108;8.640;2023-12-07T10:55:30;4.30;99.90
26342;DHT22;14054;50.108;8.640;2023-12-07T10:58:01;4.40;99.90
26342;DHT22;14054;50.108;8.640;2023-12-07T11:00:27;4.40;99.90
26342;DHT22;14054;50.108;8.640;2023-12-07T11:02:53;4.20;99.90
26342;DHT22;14054;50.108;8.640;2023-12-07T11:05:19;3.80;99.90
26342;DHT22;14054;50.108;8.640;2023-12-07T11:08:07;3.70;99.90
26342;DHT22;14054;50.108;8.640;2023-12-07T11:10:45;3.80;99.90
26342;DHT22;14054;50.108;8.640;2023-12-07T11:13:27;3.60;99.90
26342;DHT22;14054;50.108;8.640;2023-12-07T11:15:55;3.60;99.90
26342;DHT22;14054;50.108;8.640;2023-12-07T11:18:20;3.50;99.90
26342;DHT22;14054;50.108;8.640;2023-12-07T11:20:46;3.60;99.90
26342;DHT22;14054;50.108;8.640;2023-12-07T11:23:16;3.60;99.90
26342;DHT22;14054;50.108;8.640;2023-12-07T11:25:44;3.80;99.90
26342;DHT22;14054;50.108;8.640;2023-12-07T11:28:11;3.90;99.90
26342;DHT22;14054;50.108;8.640;2023-12-07T11:30:37;3.70;99.90
26342;DHT22;14054;50.108;8.640;2023-12-07T11:33:04;3.40;99.90
26342;DHT22;14054;50.108;8.640;2023-12-07T11:35:31;3.30;99.90
26342;DHT22;14054;50.108;8.640;2023-12-07T11:38:04;3.10;99.90
26342;DHT22;14054;50.108;8.640;2023-12-07T11:40:40;3.10;99.90
26342;DHT22;14054;50.108;8.640;2023-12-07T11:43:06;3.20;99.90
26342;DHT22;14054;50.108;8.640;2023-12-07T11:45:39;3.10;99.90
26342;DHT22;14054;50.108;8.640;2023-12-07T11:48:10;2.90;99.90
26342;DHT22;14054;50.108;8.640;2023-12-07T11:50:36;3.00;99.90
26342;DHT22;14054;50.108;8.640;2023-12-07T11:53:01;3.10;99.90
26342;DHT22;14054;50.108;8.640;2023-12-07T11:55:27;3.00;99.90
26342;DHT22;14054;50.108;8.640;2023-12-07T11:57:52;3.30;99.90
26342;DHT22;14054;50.108;8.640;2023-12-07T12:00:19;3.30;99.90
26342;DHT22;14054;50.108;8.640;2023-12-07T12:02:47;3.10;99.90
26342;DHT22;14054;50.108;8.640;2023-12-07T12:05:13;3.30;99.90
26342;DHT22;14054;50.108;8.640;2023-12-07T12:07:38;3.30;99.90
26342;DHT22;14054;50.108;8.640;2023-12-07T12:10:04;3.40;99.90
26342;DHT22;14054;50.108;8.640;2023-12-07T12:12:33;3.50;99.90
26342;DHT22;14054;50.108;8.640;2023-12-07T12:14:58;3.40;99.90
26342;DHT22;14054;50.108;8.640;2023-12-07T12:17:24;3.10;99.90
26342;DHT22;14054;50.108;8.640;2023-12-07T12:19:50;3.00;99.90
26342;DHT22;14054;50.108;8.640;2023-12-07T12:22:20;3.10;99.90
26342;DHT22;14054;50.108;8.640;2023-12-07T12:24:46;3.10;99.90
26342;DHT22;14054;50.108;8.640;2023-12-07T12:27:13;3.20;99.90
26342;DHT22;14054;50.108;8.640;2023-12-07T12:29:39;3.10;99.90
26342;DHT22;14054;50.108;8.640;2023-12-07T12:32:06;3.20;99.90
26342;DHT22;14054;50.108;8.640;2023-12-07T12:34:34;3.20;99.90
26342;DHT22;14054;50.108;8.640;2023-12-07T12:36:59;3.10;99.90
26342;DHT22;14054;50.108;8.640;2023-12-07T12:39:29;3.20;99.90
26342;DHT22;14054;50.108;8.640;2023-12-07T12:41:58;3.20;99.90
26342;DHT22;14054;50.108;8.640;2023-12-07T12:44:24;3.30;99.90
26342;DHT22;14054;50.108;8.640;2023-12-07T12:46:50;3.40;99.90
26342;DHT22;14054;50.108;8.640;2023-12-07T12:49:15;3.50;99.90
26342;DHT22;14054;50.108;8.640;2023-12-07T12:51:44;3.40;99.90
26342;DHT22;14054;50.108;8.640;2023-12-07T12:54:09;3.40;99.90
26342;DHT22;14054;50.108;8.640;2023-12-07T12:56:36;3.40;99.90
26342;DHT22;14054;50.108;8.640;2023-12-07T12:59:02;3.50;99.90
26342;DHT22;14054;50.108;8.640;2023-12-07T13:01:28;3.50;99.90
26342;DHT22;14054;50.108;8.640;2023-12-07T13:03:53;3.50;99.90
26342;DHT22;14054;50.108;8.640;2023-12-07T13:06:19;3.40;99.90
26342;DHT22;14054;50.108;8.640;2023-12-07T13:08:46;3.30;99.90
26342;DHT22;14054;50.108;8.640;2023-12-07T13:11:15;3.30;99.90
26342;DHT22;14054;50.108;8.640;2023-12-07T13:13:41;3.20;99.90
26342;DHT22;14054;50.108;8.640;2023-12-07T13:16:06;3.20;99.90
26342;DHT22;14054;50.108;8.640;2023-12-07T13:18:32;3.20;99.90
26342;DHT22;14054;50.108;8.640;2023-12-07T13:20:58;3.20;99.90
26342;DHT22;14054;50.108;8.640;2023-12-07T13:23:25;3.20;99.90
26342;DHT22;14054;50.108;8.640;2023-12-07T13:25:50;3.20;99.90
26342;DHT22;14054;50.108;8.640;2023-12-07T13:28:16;3.20;99.90
26342;DHT22;14054;50.108;8.640;2023-12-07T13:30:42;3.20;99.90
26342;DHT22;14054;50.108;8.640;2023-12-07T13:33:07;3.20;99.90
26342;DHT22;14054;50.108;8.640;2023-12-07T13:35:34;3.20;99.90
26342;DHT22;14054;50.108;8.640;2023-12-07T13:38:00;3.20;99.90
26342;DHT22;14054;50.108;8.640;2023-12-07T13:40:25;3.20;99.90
26342;DHT22;14054;50.108;8.640;2023-12-07T13:42:52;3.20;99.90
26342;DHT22;14054;50.108;8.640;2023-12-07T13:45:18;3.20;99.90
26342;DHT22;14054;50.108;8.640;2023-12-07T13:47:43;3.20;99.90
26342;DHT22;14054;50.108;8.640;2023-12-07T13:50:09;3.30;99.90
26342;DHT22;14054;50.108;8.640;2023-12-07T13:52:35;3.30;99.90
26342;DHT22;14054;50.108;8.640;2023-12-07T13:55:01;3.20;99.90
26342;DHT22;14054;50.108;8.640;2023-12-07T13:57:27;3.30;99.90
26342;DHT22;14054;50.108;8.640;2023-12-07T13:59:54;3.20;99.90
26342;DHT22;14054;50.108;8.640;2023-12-07T14:02:20;3.20;99.90
26342;DHT22;14054;50.108;8.640;2023-12-07T14:04:46;3.20;99.90
26342;DHT22;14054;50.108;8.640;2023-12-07T14:07:19;3.30;99.90
26342;DHT22;14054;50.108;8.640;2023-12-07T14:09:47;3.20;99.90
26342;DHT22;14054;50.108;8.640;2023-12-07T14:12:13;3.20;99.90
26342;DHT22;14054;50.108;8.640;2023-12-07T14:14:46;3.20;99.90
26342;DHT22;14054;50.108;8.640;2023-12-07T14:17:16;3.20;99.90
26342;DHT22;14054;50.108;8.640;2023-12-07T14:19:42;3.20;99.90
26342;DHT22;14054;50.108;8.640;2023-12-07T14:22:08;3.20;99.90
26342;DHT22;14054;50.108;8.640;2023-12-07T14:24:35;3.20;99.90
26342;DHT22;14054;50.108;8.640;2023-12-07T14:27:02;3.20;99.90
26342;DHT22;14054;50.108;8.640;2023-12-07T14:29:29;3.20;99.90
26342;DHT22;14054;50.108;8.640;2023-12-07T14:31:55;3.10;99.90
26342;DHT22;14054;50.108;8.640;2023-12-07T14:34:21;3.10;99.90
26342;DHT22;14054;50.108;8.640;2023-12-07T14:36:46;3.10;99.90
26342;DHT22;14054;50.108;8.640;2023-12-07T14:39:12;3.10;99.90
26342;DHT22;14054;50.108;8.640;2023-12-07T14:41:45;3.10;99.90
26342;DHT22;14054;50.108;8.640;2023-12-07T14:44:15;3.10;99.90
26342;DHT22;14054;50.108;8.640;2023-12-07T14:46:48;3.10;99.90
26342;DHT22;14054;50.108;8.640;2023-12-07T14:49:15;3.10;99.90
26342;DHT22;14054;50.108;8.640;2023-12-07T14:51:42;3.10;99.90
26342;DHT22;14054;50.108;8.640;2023-12-07T14:54:08;3.10;99.90
26342;DHT22;14054;50.108;8.640;2023-12-07T14:56:35;3.10;99.90
26342;DHT22;14054;50.108;8.640;2023-12-07T14:59:01;3.10;99.90
26342;DHT22;14054;50.108;8.640;2023-12-07T15:01:27;3.00;99.90
26342;DHT22;14054;50.108;8.640;2023-12-07T15:03:53;3.00;99.90
26342;DHT22;14054;50.108;8.640;2023-12-07T15:06:19;3.00;99.90
26342;DHT22;14054;50.108;8.640;2023-12-07T15:08:44;3.00;99.90
26342;DHT22;14054;50.108;8.640;2023-12-07T15:11:10;3.00;99.90
26342;DHT22;14054;50.108;8.640;2023-12-07T15:13:36;3.00;99.90
26342;DHT22;14054;50.108;8.640;2023-12-07T15:16:02;3.00;99.90
26342;DHT22;14054;50.108;8.640;2023-12-07T15:18:29;3.00;99.90
26342;DHT22;14054;50.108;8.640;2023-12-07T15:20:57;3.00;99.90
26342;DHT22;14054;50.108;8.640;2023-12-07T15:23:23;3.00;99.90
26342;DHT22;14054;50.108;8.640;2023-12-07T15:25:49;3.00;99.90
26342;DHT22;14054;50.108;8.640;2023-12-07T15:28:14;3.00;99.90
26342;DHT22;14054;50.108;8.640;2023-12-07T15:30:40;3.00;99.90
26342;DHT22;14054;50.108;8.640;2023-12-07T15:33:06;2.90;99.90
26342;DHT22;14054;50.108;8.640;2023-12-07T15:35:32;2.90;99.90
26342;DHT22;14054;50.108;8.640;2023-12-07T15:37:57;2.90;99.90
26342;DHT22;14054;50.108;8.640;2023-12-07T15:40:23;2.80;99.90
26342;DHT22;14054;50.108;8.640;2023-12-07T15:42:49;2.80;99.90
26342;DHT22;14054;50.108;8.640;2023-12-07T15:45:15;2.70;99.90